Time;durP1;ratioP1;P1;durP2;ratioP2;P2;SDS_P1;SDS_P2;PMS_P1;PMS_P2;Temp;Humidity;BMP_temperature;BMP_pressure;BME280_temperature;BME280_humidity;BME280_pressure;Samples;Min_cycle;Max_cycle;Signal;HPM_P1;HPM_P2
2021/04/05 00:00:00;;;;;;;46.13;14.70;;;5.20;99.90;;;;;;5002519;28;20061;-86
2021/04/05 00:02:27;;;;;;;29.33;11.55;;;5.30;99.90;;;;;;5031567;28;20104;-86
2021/04/05 00:04:53;;;;;;;23.30;10.73;;;5.30;99.90;;;;;;5002095;28;20057;-86
2021/04/05 00:07:21;;;;;;;23.05;10.07;;;5.40;99.90;;;;;;5030098;28;20052;-85
2021/04/05 00:09:47;;;;;;;33.38;10.82;;;5.50;99.90;;;;;;5044854;28;20048;-87
2021/04/05 00:12:13;;;;;;;35.05;10.40;;;5.50;99.90;;;;;;5022230;28;20053;-85
2021/04/05 00:14:42;;;;;;;33.05;11.23;;;5.50;99.90;;;;;;5048536;28;20096;-86
2021/04/05 00:17:10;;;;;;;39.92;11.20;;;5.60;99.90;;;;;;5031954;28;20080;-87
2021/04/05 00:19:43;;;;;;;31.30;10.98;;;5.60;99.90;;;;;;5028772;28;20132;-86
2021/04/05 00:22:11;;;;;;;43.08;11.60;;;5.60;99.90;;;;;;5032277;28;20051;-86
2021/04/05 00:24:37;;;;;;;31.48;12.07;;;5.70;99.90;;;;;;5027641;28;20051;-84
2021/04/05 00:27:04;;;;;;;29.35;12.15;;;5.70;99.90;;;;;;5028892;28;20045;-86
2021/04/05 00:29:30;;;;;;;32.55;10.60;;;5.70;99.90;;;;;;5026425;28;20113;-86
2021/04/05 00:31:57;;;;;;;31.80;12.07;;;5.70;99.90;;;;;;5029836;28;20088;-85
2021/04/05 00:34:23;;;;;;;34.15;10.90;;;5.70;99.90;;;;;;5031842;28;20049;-86
2021/04/05 00:36:49;;;;;;;28.25;12.35;;;5.70;99.90;;;;;;5027610;28;20101;-86
2021/04/05 00:39:16;;;;;;;33.42;11.77;;;5.70;99.90;;;;;;5028220;28;20100;-85
2021/04/05 00:41:43;;;;;;;31.38;11.95;;;5.80;99.90;;;;;;5041782;28;20075;-86
2021/04/05 00:44:09;;;;;;;31.80;11.23;;;5.80;99.90;;;;;;5030024;28;20068;-86
2021/04/05 00:46:35;;;;;;;31.92;10.75;;;5.80;99.90;;;;;;5025627;28;20048;-86
2021/04/05 00:49:03;;;;;;;33.85;12.13;;;5.90;99.90;;;;;;5024180;28;20089;-86
2021/04/05 00:51:29;;;;;;;37.40;11.63;;;5.90;99.90;;;;;;5027333;28;20045;-85
2021/04/05 00:53:56;;;;;;;34.10;12.15;;;5.90;99.90;;;;;;5024671;28;20065;-85
2021/04/05 00:56:25;;;;;;;35.60;11.30;;;6.00;99.90;;;;;;5030311;28;20135;-86
2021/04/05 00:58:52;;;;;;;31.98;11.18;;;5.90;99.90;;;;;;5046216;28;20079;-85
2021/04/05 01:01:24;;;;;;;34.08;11.85;;;6.00;99.90;;;;;;5026903;28;20045;-86
2021/04/05 01:03:51;;;;;;;33.72;11.75;;;6.00;99.90;;;;;;5027269;28;20037;-86
2021/04/05 01:06:28;;;;;;;31.48;11.43;;;6.00;99.90;;;;;;5023530;28;20057;-86
2021/04/05 01:08:54;;;;;;;47.00;11.85;;;6.10;99.90;;;;;;5024925;28;20045;-86
2021/04/05 01:11:26;;;;;;;36.90;11.05;;;6.10;99.90;;;;;;5023065;28;20058;-85
2021/04/05 01:13:53;;;;;;;35.67;11.40;;;6.20;99.90;;;;;;5041649;28;20140;-86
2021/04/05 01:16:21;;;;;;;37.25;12.00;;;6.30;99.90;;;;;;5025874;28;20157;-85
2021/04/05 01:18:47;;;;;;;40.70;11.73;;;6.40;99.90;;;;;;5028007;28;20072;-86
2021/04/05 01:21:14;;;;;;;36.60;11.25;;;6.40;99.90;;;;;;5025418;28;20161;-86
2021/04/05 01:23:40;;;;;;;37.65;11.80;;;6.50;99.90;;;;;;5025878;28;20152;-86
2021/04/05 01:26:06;;;;;;;29.17;11.65;;;6.60;99.90;;;;;;5031618;28;20092;-86
2021/04/05 01:28:33;;;;;;;38.33;12.07;;;6.70;99.90;;;;;;5026346;28;20487;-86
2021/04/05 01:31:01;;;;;;;36.17;11.07;;;6.70;99.90;;;;;;5027807;28;20049;-86
2021/04/05 01:33:37;;;;;;;31.45;10.43;;;6.80;99.90;;;;;;5043146;28;20145;-86
2021/04/05 01:36:05;;;;;;;33.58;9.27;;;6.90;99.90;;;;;;5025189;28;20057;-86
2021/04/05 01:38:37;;;;;;;27.40;7.97;;;7.10;99.90;;;;;;5042773;28;20055;-85
2021/04/05 01:41:27;;;;;;;25.80;8.25;;;7.20;99.90;;;;;;5034415;28;20041;-86
2021/04/05 01:43:54;;;;;;;23.83;7.60;;;7.40;99.90;;;;;;5030150;28;20049;-85
2021/04/05 01:46:22;;;;;;;19.83;7.45;;;7.50;99.90;;;;;;5034337;28;20179;-86
2021/04/05 01:48:49;;;;;;;22.33;7.90;;;7.60;99.90;;;;;;5025512;28;20041;-85
2021/04/05 01:51:18;;;;;;;24.45;7.65;;;7.60;99.90;;;;;;5026496;28;20053;-85
2021/04/05 01:53:45;;;;;;;23.40;7.68;;;7.60;99.90;;;;;;5027011;28;20072;-85
2021/04/05 01:56:14;;;;;;;20.67;8.18;;;7.60;99.90;;;;;;5027792;28;20542;-85
2021/04/05 01:58:44;;;;;;;25.02;7.65;;;7.60;99.90;;;;;;5025167;28;20112;-85
2021/04/05 02:01:15;;;;;;;26.00;8.68;;;7.60;99.90;;;;;;5027766;28;20052;-86
2021/04/05 02:03:42;;;;;;;25.67;9.20;;;7.70;99.90;;;;;;5024842;28;20053;-86
2021/04/05 02:06:14;;;;;;;28.40;7.95;;;7.70;99.90;;;;;;5026878;28;20052;-86
2021/04/05 02:08:42;;;;;;;25.92;7.93;;;7.70;99.90;;;;;;5047490;28;20072;-85
2021/04/05 02:11:17;;;;;;;24.52;7.63;;;7.70;99.90;;;;;;5024138;28;20049;-85
2021/04/05 02:13:49;;;;;;;27.58;7.80;;;7.70;99.90;;;;;;5026418;28;20127;-86
2021/04/05 02:16:20;;;;;;;22.00;6.93;;;7.80;99.90;;;;;;5022487;28;20079;-86
2021/04/05 02:18:48;;;;;;;25.90;7.57;;;7.80;99.90;;;;;;5025771;28;20155;-86
2021/04/05 02:21:16;;;;;;;23.42;8.27;;;7.80;99.90;;;;;;5042575;28;20071;-85
2021/04/05 02:23:45;;;;;;;20.45;7.30;;;7.80;99.90;;;;;;5042143;28;20109;-86
2021/04/05 02:26:17;;;;;;;23.98;8.35;;;7.80;99.90;;;;;;5025615;28;20079;-86
2021/04/05 02:28:50;;;;;;;23.50;7.15;;;7.80;99.90;;;;;;5021719;28;20107;-85
2021/04/05 02:31:22;;;;;;;18.42;6.65;;;7.80;99.90;;;;;;5033093;28;20065;-85
2021/04/05 02:33:51;;;;;;;20.50;7.32;;;7.80;99.90;;;;;;5025109;28;20397;-85
2021/04/05 02:36:24;;;;;;;23.98;9.13;;;7.80;99.90;;;;;;5044180;28;20053;-85
2021/04/05 02:38:54;;;;;;;21.15;6.70;;;7.80;99.90;;;;;;5024854;28;20096;-86
2021/04/05 02:41:22;;;;;;;24.70;7.95;;;7.80;99.90;;;;;;5030933;28;20484;-85
2021/04/05 02:43:50;;;;;;;22.67;7.65;;;7.80;99.90;;;;;;5025754;28;20053;-85
2021/04/05 02:46:20;;;;;;;19.73;7.65;;;7.80;99.90;;;;;;5041719;28;20521;-85
2021/04/05 02:48:48;;;;;;;23.02;7.40;;;7.90;99.90;;;;;;5023862;28;20104;-86
2021/04/05 02:51:15;;;;;;;17.42;7.47;;;7.90;99.90;;;;;;5021343;28;20050;-86
2021/04/05 02:54:05;;;;;;;17.42;7.47;;;7.90;99.90;;;;;;5020622;28;20068;-85
2021/04/05 02:56:31;;;;;;;25.63;7.55;;;7.90;99.90;;;;;;5024211;28;20049;-86
2021/04/05 02:58:58;;;;;;;18.45;7.65;;;7.90;99.90;;;;;;5024122;28;20134;-86
2021/04/05 03:01:26;;;;;;;23.15;7.35;;;7.90;99.90;;;;;;5024134;28;20055;-86
2021/04/05 03:03:57;;;;;;;26.20;8.55;;;7.90;99.90;;;;;;5026393;28;20131;-85
2021/04/05 03:06:26;;;;;;;32.30;8.00;;;8.00;99.90;;;;;;5037898;28;20504;-85
2021/04/05 03:08:53;;;;;;;18.90;7.35;;;8.00;99.90;;;;;;5018103;28;20049;-85
2021/04/05 03:11:21;;;;;;;22.83;7.25;;;8.00;99.90;;;;;;5025084;28;20142;-85
2021/04/05 03:13:48;;;;;;;26.58;8.68;;;8.00;99.90;;;;;;5022656;28;20056;-85
2021/04/05 03:16:23;;;;;;;17.42;7.00;;;8.00;99.90;;;;;;5038564;28;20084;-85
2021/04/05 03:18:51;;;;;;;17.55;7.85;;;8.00;99.90;;;;;;5023812;28;20080;-86
2021/04/05 03:21:20;;;;;;;24.73;8.30;;;8.00;99.90;;;;;;5027764;28;20044;-85
2021/04/05 03:23:46;;;;;;;25.90;8.50;;;8.00;99.90;;;;;;5022478;28;20069;-87
2021/04/05 03:26:13;;;;;;;28.85;9.38;;;8.00;99.90;;;;;;5029018;28;20049;-86
2021/04/05 03:28:39;;;;;;;18.52;7.85;;;8.00;99.90;;;;;;5023533;28;20080;-86
2021/04/05 03:31:18;;;;;;;32.67;9.00;;;8.10;99.90;;;;;;5031226;28;20166;-86
2021/04/05 03:33:50;;;;;;;21.30;7.30;;;8.10;99.90;;;;;;5023177;28;20393;-85
2021/04/05 03:36:26;;;;;;;27.05;7.13;;;8.10;99.90;;;;;;5014019;28;20080;-85
2021/04/05 03:38:53;;;;;;;21.23;6.80;;;8.10;99.90;;;;;;5020982;28;20171;-86
2021/04/05 03:41:31;;;;;;;22.92;6.93;;;8.10;99.90;;;;;;5022736;28;20063;-85
2021/04/05 03:44:36;;;;;;;27.40;7.70;;;8.10;99.90;;;;;;5040121;28;20064;-86
2021/04/05 03:47:30;;;;;;;27.33;7.25;;;8.10;99.90;;;;;;5017920;28;20826;-86
2021/04/05 03:50:19;;;;;;;21.30;7.03;;;8.10;99.90;;;;;;5017826;28;20080;-85
2021/04/05 03:52:58;;;;;;;24.45;6.40;;;8.10;99.90;;;;;;5037388;28;20101;-85
2021/04/05 03:55:29;;;;;;;26.77;8.40;;;8.10;99.90;;;;;;5020012;28;20045;-85
2021/04/05 03:57:58;;;;;;;18.67;6.53;;;8.10;99.90;;;;;;5025075;28;20065;-85
2021/04/05 04:00:28;;;;;;;24.30;6.68;;;8.10;99.90;;;;;;5031188;28;20049;-85
2021/04/05 04:03:00;;;;;;;18.25;6.22;;;8.10;99.90;;;;;;5040318;28;20076;-86
2021/04/05 04:08:18;;;;;;;22.60;5.93;;;8.10;99.90;;;;;;5044918;28;20457;-86
2021/04/05 04:10:48;;;;;;;20.75;6.40;;;8.20;99.90;;;;;;5041417;28;20553;-85
2021/04/05 04:13:16;;;;;;;23.33;7.65;;;8.20;99.90;;;;;;5029768;28;20057;-85
2021/04/05 04:15:43;;;;;;;23.10;5.70;;;8.20;99.90;;;;;;5028036;28;20051;-85
2021/04/05 04:18:10;;;;;;;13.80;6.53;;;8.20;99.90;;;;;;5025314;28;20073;-86
2021/04/05 04:20:37;;;;;;;21.55;5.88;;;8.20;99.90;;;;;;5024698;28;20049;-85
2021/04/05 04:23:04;;;;;;;17.63;5.50;;;8.20;99.90;;;;;;5025675;28;20044;-85
2021/04/05 04:25:30;;;;;;;16.15;5.05;;;8.20;99.90;;;;;;5039449;28;20080;-85
2021/04/05 04:27:56;;;;;;;19.25;5.40;;;8.30;99.90;;;;;;5022204;28;20103;-85
2021/04/05 04:30:31;;;;;;;14.98;2.55;;;8.30;99.90;;;;;;5024264;28;20072;-85
2021/04/05 04:33:03;;;;;;;6.30;1.33;;;8.20;99.90;;;;;;5022615;28;20049;-86
2021/04/05 04:35:31;;;;;;;11.65;1.45;;;8.10;99.90;;;;;;5022547;28;20148;-86
2021/04/05 04:37:58;;;;;;;9.02;1.83;;;7.80;99.90;;;;;;5028585;28;20108;-86
2021/04/05 04:40:26;;;;;;;9.82;2.17;;;7.70;99.90;;;;;;5025035;28;20759;-87
2021/04/05 04:42:55;;;;;;;11.23;1.67;;;7.50;99.90;;;;;;5041216;28;20055;-86
2021/04/05 04:45:23;;;;;;;2.13;0.57;;;7.30;99.90;;;;;;5024637;28;20041;-87
2021/04/05 04:47:51;;;;;;;1.23;0.40;;;7.10;99.90;;;;;;5024623;28;20057;-87
2021/04/05 04:50:19;;;;;;;3.20;0.63;;;6.80;99.90;;;;;;5038286;28;20056;-86
2021/04/05 04:52:46;;;;;;;3.40;0.32;;;6.70;99.90;;;;;;5026539;28;20051;-86
2021/04/05 04:55:13;;;;;;;3.95;0.45;;;6.50;99.90;;;;;;5032308;28;20045;-86
2021/04/05 04:57:39;;;;;;;4.50;0.55;;;6.40;99.90;;;;;;5017181;28;20052;-86
2021/04/05 05:00:07;;;;;;;9.10;1.17;;;6.20;99.90;;;;;;5025141;28;20072;-86
2021/04/05 05:02:39;;;;;;;5.30;0.50;;;6.10;99.90;;;;;;5025126;28;20063;-86
2021/04/05 05:05:08;;;;;;;3.63;0.40;;;6.00;99.90;;;;;;5025026;28;20084;-86
2021/04/05 05:07:37;;;;;;;6.80;0.80;;;5.80;99.90;;;;;;5026770;28;20362;-87
2021/04/05 05:10:06;;;;;;;5.05;0.70;;;5.70;99.90;;;;;;5031655;28;20050;-86
2021/04/05 05:12:34;;;;;;;2.40;0.57;;;5.60;99.90;;;;;;5028416;28;20071;-86
2021/04/05 05:15:00;;;;;;;7.57;0.57;;;5.60;99.90;;;;;;5032545;28;20485;-86
2021/04/05 05:17:28;;;;;;;4.05;0.70;;;5.50;99.90;;;;;;5016228;28;20061;-85
2021/04/05 05:19:54;;;;;;;4.82;0.65;;;5.40;99.90;;;;;;5032341;28;20057;-85
2021/04/05 05:22:22;;;;;;;2.60;0.60;;;5.30;99.90;;;;;;5039931;28;20061;-86
2021/04/05 05:24:50;;;;;;;10.23;0.73;;;5.30;99.90;;;;;;5038514;28;20048;-85
2021/04/05 05:27:19;;;;;;;8.82;1.02;;;5.20;99.90;;;;;;5034356;28;20118;-85
2021/04/05 05:29:46;;;;;;;5.35;0.90;;;5.20;99.90;;;;;;5033763;28;20307;-87
2021/04/05 05:32:15;;;;;;;5.60;0.70;;;5.20;99.90;;;;;;5052690;28;20125;-84
2021/04/05 05:34:42;;;;;;;6.13;0.70;;;5.10;99.90;;;;;;5043058;28;20496;-85
2021/04/05 05:37:08;;;;;;;7.70;1.13;;;5.20;99.90;;;;;;5032887;28;20172;-85
2021/04/05 05:39:34;;;;;;;3.03;0.60;;;5.10;99.90;;;;;;5025488;28;20033;-86
2021/04/05 05:42:25;;;;;;;3.17;0.60;;;5.20;99.90;;;;;;5030419;28;20059;-85
2021/04/05 05:45:01;;;;;;;5.05;0.75;;;5.20;99.90;;;;;;5038323;28;20542;-84
2021/04/05 05:47:54;;;;;;;2.67;1.00;;;5.20;99.90;;;;;;5040546;28;20128;-84
2021/04/05 05:50:45;;;;;;;8.52;0.85;;;5.20;99.90;;;;;;5022842;28;20045;-85
2021/04/05 05:53:11;;;;;;;12.32;0.90;;;5.20;99.90;;;;;;5037489;28;20060;-83
2021/04/05 05:56:18;;;;;;;6.78;0.93;;;5.20;99.90;;;;;;5035571;28;20113;-84
2021/04/05 05:59:08;;;;;;;4.38;0.93;;;5.30;99.90;;;;;;5039733;28;20032;-84
2021/04/05 06:01:55;;;;;;;3.13;0.40;;;5.30;99.90;;;;;;5037964;28;20052;-84
2021/04/05 06:04:48;;;;;;;4.25;0.60;;;5.20;99.90;;;;;;5034411;28;20109;-84
2021/04/05 06:07:39;;;;;;;4.38;0.70;;;5.10;99.90;;;;;;5030420;28;20053;-84
2021/04/05 06:10:50;;;;;;;1.85;0.50;;;5.10;99.90;;;;;;5024986;28;20052;-84
2021/04/05 06:13:47;;;;;;;4.85;0.68;;;5.10;99.90;;;;;;5029263;28;20049;-83
2021/04/05 06:16:35;;;;;;;7.03;1.48;;;5.00;99.90;;;;;;5017129;28;20119;-82
2021/04/05 06:19:23;;;;;;;1.33;0.35;;;4.90;99.90;;;;;;5015669;28;20057;-84
2021/04/05 06:21:57;;;;;;;2.20;0.47;;;4.90;99.90;;;;;;5023845;28;20592;-82
2021/04/05 06:24:38;;;;;;;3.15;0.35;;;4.80;99.90;;;;;;5008000;28;20053;-82
2021/04/05 06:27:15;;;;;;;7.35;0.60;;;4.70;99.90;;;;;;5023378;28;20060;-83
2021/04/05 06:30:09;;;;;;;4.93;0.95;;;4.70;99.90;;;;;;5027591;28;20057;-82
2021/04/05 06:33:05;;;;;;;4.25;0.88;;;4.60;99.90;;;;;;5025920;28;20051;-86
2021/04/05 06:35:50;;;;;;;6.70;0.90;;;4.60;99.90;;;;;;5020585;28;20547;-83
2021/04/05 06:38:27;;;;;;;9.18;1.15;;;4.60;99.90;;;;;;5033579;28;20064;-83
2021/04/05 06:40:57;;;;;;;9.20;1.08;;;4.50;99.90;;;;;;5028295;28;20049;-82
2021/04/05 06:44:11;;;;;;;12.05;1.63;;;4.40;99.90;;;;;;5039114;28;20081;-83
2021/04/05 06:47:03;;;;;;;12.00;1.50;;;4.30;99.90;;;;;;4978716;28;20132;-83
2021/04/05 06:50:11;;;;;;;17.65;2.28;;;4.30;99.90;;;;;;5015324;28;20132;-83
2021/04/05 06:53:28;;;;;;;12.70;2.03;;;4.10;99.90;;;;;;5040830;28;20153;-82
2021/04/05 06:55:56;;;;;;;11.15;2.00;;;4.00;99.90;;;;;;4975170;28;20113;-82
2021/04/05 06:58:23;;;;;;;19.33;3.83;;;4.00;99.90;;;;;;5016869;28;20416;-82
2021/04/05 07:01:28;;;;;;;14.07;2.08;;;4.00;99.90;;;;;;5023290;28;20084;-83
2021/04/05 07:04:25;;;;;;;8.80;1.30;;;4.10;99.90;;;;;;5012801;28;20061;-81
2021/04/05 07:07:25;;;;;;;13.00;1.70;;;4.10;99.90;;;;;;5033761;28;20068;-84
2021/04/05 07:10:10;;;;;;;16.38;2.20;;;4.30;99.90;;;;;;5020155;28;20056;-84
2021/04/05 07:12:52;;;;;;;17.73;1.88;;;4.30;99.90;;;;;;5019615;28;20105;-84
2021/04/05 07:15:33;;;;;;;12.77;1.77;;;4.40;99.90;;;;;;5020190;28;20651;-85
2021/04/05 07:18:32;;;;;;;21.20;2.35;;;4.40;99.90;;;;;;5027338;28;20102;-85
2021/04/05 07:21:20;;;;;;;6.47;2.03;;;4.50;99.90;;;;;;5038077;28;20497;-84
2021/04/05 07:23:52;;;;;;;16.88;2.35;;;4.60;99.90;;;;;;5023269;28;20049;-84
2021/04/05 07:26:51;;;;;;;16.45;2.10;;;4.60;99.90;;;;;;5005442;28;20095;-83
2021/04/05 07:29:26;;;;;;;11.32;1.98;;;4.60;99.90;;;;;;5005765;28;20100;-83
2021/04/05 07:32:08;;;;;;;10.60;1.50;;;4.50;99.90;;;;;;5041173;28;20052;-83
2021/04/05 07:35:04;;;;;;;15.07;2.25;;;4.50;99.90;;;;;;5015822;28;20067;-83
2021/04/05 07:38:01;;;;;;;12.43;1.95;;;4.50;99.90;;;;;;5023509;28;20049;-83
2021/04/05 07:40:49;;;;;;;11.10;1.55;;;4.60;99.90;;;;;;5036836;28;20076;-82
2021/04/05 07:43:56;;;;;;;7.78;1.35;;;4.70;99.90;;;;;;5024033;28;20071;-82
2021/04/05 07:46:32;;;;;;;7.82;2.45;;;4.80;99.90;;;;;;5021473;28;20071;-83
2021/04/05 07:49:10;;;;;;;7.32;2.45;;;4.80;99.90;;;;;;5020414;28;20041;-84
2021/04/05 07:51:46;;;;;;;4.53;0.88;;;4.80;99.90;;;;;;5024011;28;20049;-84
2021/04/05 07:54:15;;;;;;;7.95;1.35;;;4.70;99.90;;;;;;5020728;28;20037;-83
2021/04/05 07:56:51;;;;;;;7.13;1.80;;;4.60;99.90;;;;;;5025397;28;20160;-84
2021/04/05 07:59:35;;;;;;;3.28;0.88;;;4.50;99.90;;;;;;5021191;28;20164;-83
2021/04/05 08:02:27;;;;;;;1.83;0.70;;;4.40;99.90;;;;;;5020878;28;20049;-82
2021/04/05 08:05:02;;;;;;;3.17;0.45;;;4.40;99.90;;;;;;5010975;28;20064;-82
2021/04/05 08:07:53;;;;;;;2.28;0.30;;;4.50;99.90;;;;;;5011337;28;20489;-82
2021/04/05 08:10:43;;;;;;;4.57;0.70;;;4.60;99.90;;;;;;5021830;28;20049;-83
2021/04/05 08:13:28;;;;;;;1.80;0.60;;;4.70;99.90;;;;;;5038482;28;20055;-83
2021/04/05 08:16:05;;;;;;;0.65;0.20;;;4.80;99.90;;;;;;5019730;28;20420;-81
2021/04/05 08:18:38;;;;;;;4.22;0.40;;;4.80;99.90;;;;;;5023548;28;20532;-83
2021/04/05 08:21:22;;;;;;;0.17;0.10;;;4.80;99.90;;;;;;5029527;28;20057;-85
2021/04/05 08:24:14;;;;;;;2.45;0.20;;;4.70;99.90;;;;;;5040032;28;20091;-84
2021/04/05 08:26:56;;;;;;;3.08;0.10;;;4.80;99.90;;;;;;5027784;28;20175;-84
2021/04/05 08:29:41;;;;;;;5.15;0.25;;;4.60;99.90;;;;;;5024205;28;20053;-84
2021/04/05 08:32:44;;;;;;;0.82;0.17;;;4.10;99.90;;;;;;5027135;28;20074;-84
2021/04/05 08:35:38;;;;;;;0.60;0.08;;;3.80;99.90;;;;;;5020016;28;20137;-82
2021/04/05 08:38:29;;;;;;;0.30;0.10;;;3.50;99.90;;;;;;4998509;28;20144;-82
2021/04/05 08:41:19;;;;;;;1.48;0.10;;;3.20;99.90;;;;;;5021309;28;20048;-81
2021/04/05 08:44:17;;;;;;;1.70;0.10;;;3.00;99.90;;;;;;5030435;28;20073;-82
2021/04/05 08:46:47;;;;;;;1.27;0.20;;;2.90;99.90;;;;;;5020872;28;20116;-82
2021/04/05 08:49:21;;;;;;;0.65;0.20;;;2.90;99.90;;;;;;5021855;28;20747;-80
2021/04/05 08:51:54;;;;;;;4.20;1.13;;;2.90;99.90;;;;;;5005932;28;20049;-82
2021/04/05 08:54:28;;;;;;;3.50;0.95;;;2.90;99.90;;;;;;5031359;28;20053;-81
2021/04/05 08:57:00;;;;;;;2.92;0.80;;;3.00;99.90;;;;;;5021321;28;20053;-83
2021/04/05 08:59:35;;;;;;;7.15;0.68;;;3.20;99.90;;;;;;5021984;28;20052;-81
2021/04/05 09:02:37;;;;;;;10.93;1.20;;;3.40;99.90;;;;;;5038548;28;20079;-79
2021/04/05 09:05:28;;;;;;;3.45;0.60;;;3.50;99.90;;;;;;5040450;28;20053;-80
2021/04/05 09:08:11;;;;;;;8.30;0.98;;;3.80;99.90;;;;;;5034000;28;20052;-81
2021/04/05 09:11:02;;;;;;;5.93;0.83;;;4.10;99.90;;;;;;5019037;28;20148;-81
2021/04/05 09:13:39;;;;;;;5.55;0.80;;;4.30;99.90;;;;;;5024143;28;20072;-81
2021/04/05 09:16:24;;;;;;;4.47;1.08;;;4.50;99.90;;;;;;5041490;28;20044;-81
2021/04/05 09:19:21;;;;;;;15.65;1.55;;;4.50;99.90;;;;;;5041489;28;20051;-82
2021/04/05 09:22:24;;;;;;;14.30;2.35;;;4.50;99.90;;;;;;5021353;28;20144;-81
2021/04/05 09:25:12;;;;;;;8.35;1.38;;;4.30;99.90;;;;;;5018294;28;20049;-84
2021/04/05 09:28:03;;;;;;;16.02;1.80;;;4.30;99.90;;;;;;5025487;28;20120;-82
2021/04/05 09:30:50;;;;;;;10.63;1.40;;;4.30;99.90;;;;;;5018860;28;20045;-80
2021/04/05 09:33:44;;;;;;;9.52;1.40;;;4.20;99.90;;;;;;5019610;28;20084;-80
2021/04/05 09:36:47;;;;;;;6.53;1.17;;;4.20;99.90;;;;;;5035280;28;20439;-82
2021/04/05 09:39:52;;;;;;;8.63;1.48;;;4.30;99.90;;;;;;5009824;28;20059;-80
2021/04/05 09:42:55;;;;;;;7.65;1.02;;;4.50;99.90;;;;;;4987435;28;20674;-82
2021/04/05 09:45:35;;;;;;;4.10;0.53;;;4.80;99.90;;;;;;5026083;28;20049;-81
2021/04/05 09:48:33;;;;;;;4.80;0.93;;;5.10;99.90;;;;;;5015328;28;20088;-80
2021/04/05 09:51:10;;;;;;;6.75;1.42;;;5.30;99.90;;;;;;5020679;28;20075;-80
2021/04/05 09:53:39;;;;;;;5.00;1.15;;;5.50;99.90;;;;;;5038017;28;20040;-84
2021/04/05 09:56:09;;;;;;;5.78;0.50;;;5.50;99.90;;;;;;5041347;28;20215;-82
2021/04/05 09:58:49;;;;;;;6.70;1.10;;;5.60;99.90;;;;;;5041019;28;20056;-83
2021/04/05 10:01:23;;;;;;;7.47;1.17;;;5.70;99.90;;;;;;5020618;28;20087;-82
2021/04/05 10:04:08;;;;;;;5.78;0.90;;;5.70;99.90;;;;;;5032875;28;20052;-81
2021/04/05 10:06:36;;;;;;;5.20;0.90;;;5.90;99.90;;;;;;5034551;28;20064;-82
2021/04/05 10:09:05;;;;;;;9.50;1.38;;;6.00;99.90;;;;;;5024152;28;21153;-81
2021/04/05 10:11:40;;;;;;;9.23;1.60;;;5.90;99.90;;;;;;5032339;28;20053;-80
2021/04/05 10:14:15;;;;;;;5.05;0.95;;;5.70;99.90;;;;;;5026093;28;20449;-82
2021/04/05 10:16:53;;;;;;;5.05;0.70;;;5.50;99.90;;;;;;5028434;28;20058;-82
2021/04/05 10:19:33;;;;;;;7.72;1.70;;;5.30;99.70;;;;;;5026971;28;20053;-82
2021/04/05 10:22:12;;;;;;;6.00;1.23;;;5.00;99.90;;;;;;5009474;28;20041;-81
2021/04/05 10:24:43;;;;;;;8.77;1.08;;;4.80;99.90;;;;;;5020331;28;20055;-83
2021/04/05 10:27:16;;;;;;;10.30;1.20;;;4.60;99.90;;;;;;4989293;28;20150;-82
2021/04/05 10:29:44;;;;;;;5.40;1.20;;;4.60;99.90;;;;;;5006666;28;20168;-83
2021/04/05 10:32:15;;;;;;;8.52;1.60;;;4.70;99.90;;;;;;5026296;28;20128;-84
2021/04/05 10:34:44;;;;;;;6.90;1.40;;;5.00;99.90;;;;;;5020922;28;20096;-84
2021/04/05 10:37:32;;;;;;;5.63;0.73;;;5.30;99.90;;;;;;5012072;28;20107;-81
2021/04/05 10:40:01;;;;;;;4.00;0.70;;;5.60;99.20;;;;;;5024520;28;20053;-84
2021/04/05 10:42:54;;;;;;;12.77;2.03;;;6.00;98.60;;;;;;5012516;28;20139;-80
2021/04/05 10:45:30;;;;;;;4.43;0.65;;;6.60;97.20;;;;;;5008647;28;20062;-81
2021/04/05 10:48:12;;;;;;;3.53;1.17;;;6.90;90.30;;;;;;5017770;28;20128;-80
2021/04/05 10:50:45;;;;;;;9.25;2.28;;;7.10;88.70;;;;;;5013141;28;20148;-80
2021/04/05 10:53:15;;;;;;;7.22;0.90;;;7.30;90.60;;;;;;5022272;28;20055;-80
2021/04/05 10:56:00;;;;;;;6.20;0.85;;;7.30;84.10;;;;;;5000336;28;20139;-79
2021/04/05 10:58:34;;;;;;;5.15;1.17;;;7.00;78.30;;;;;;5023524;28;20553;-79
2021/04/05 11:01:08;;;;;;;8.90;0.65;;;6.70;80.20;;;;;;5014579;28;20119;-80
2021/04/05 11:03:40;;;;;;;6.95;0.82;;;6.40;83.30;;;;;;5026882;28;20045;-80
2021/04/05 11:06:09;;;;;;;6.00;1.48;;;6.50;82.10;;;;;;5021000;28;20144;-82
2021/04/05 11:08:40;;;;;;;13.70;2.13;;;6.40;85.40;;;;;;5029083;28;20051;-82
2021/04/05 11:11:11;;;;;;;9.23;1.83;;;6.20;85.60;;;;;;5029596;28;20061;-79
2021/04/05 11:13:42;;;;;;;4.30;0.73;;;5.90;80.40;;;;;;5020293;28;20124;-81
2021/04/05 11:16:12;;;;;;;5.95;0.80;;;5.90;85.30;;;;;;5016973;28;20041;-82
2021/04/05 11:18:48;;;;;;;5.30;1.13;;;6.20;77.60;;;;;;5034723;28;20122;-82
2021/04/05 11:21:18;;;;;;;4.68;1.25;;;6.50;80.40;;;;;;5020680;28;20057;-81
2021/04/05 11:23:47;;;;;;;2.00;0.47;;;6.90;78.50;;;;;;4982685;28;20084;-82
2021/04/05 11:26:20;;;;;;;8.35;1.15;;;7.20;73.90;;;;;;4986548;28;20500;-81
2021/04/05 11:28:53;;;;;;;2.40;0.80;;;7.60;76.40;;;;;;4987274;28;20456;-82
2021/04/05 11:31:21;;;;;;;10.50;0.70;;;7.80;73.00;;;;;;5014799;28;20101;-80
2021/04/05 11:34:00;;;;;;;3.80;0.60;;;7.90;75.40;;;;;;5013337;28;20049;-82
2021/04/05 11:36:51;;;;;;;3.35;1.10;;;8.30;72.40;;;;;;5014184;28;20045;-83
2021/04/05 11:39:25;;;;;;;6.80;1.00;;;8.50;73.00;;;;;;5018234;28;20048;-82
2021/04/05 11:41:54;;;;;;;5.38;0.85;;;8.10;83.60;;;;;;5005186;28;20075;-83
2021/04/05 11:44:27;;;;;;;6.03;1.02;;;7.40;88.00;;;;;;5012383;28;20079;-83
2021/04/05 11:46:59;;;;;;;2.70;1.05;;;6.80;91.70;;;;;;5005881;28;20059;-82
2021/04/05 11:49:31;;;;;;;3.67;1.08;;;6.50;91.80;;;;;;5008254;28;20142;-84
2021/04/05 11:52:28;;;;;;;5.00;0.47;;;6.40;93.40;;;;;;4970846;28;20053;-81
2021/04/05 11:54:58;;;;;;;4.20;0.60;;;6.30;97.10;;;;;;5005317;28;20049;-79
2021/04/05 11:57:42;;;;;;;1.88;0.50;;;6.40;99.30;;;;;;5009610;28;20134;-81
2021/04/05 12:00:18;;;;;;;5.82;0.75;;;6.70;97.40;;;;;;4988499;28;20045;-81
2021/04/05 12:02:53;;;;;;;2.17;0.38;;;7.00;98.10;;;;;;5028153;28;20048;-80
2021/04/05 12:05:28;;;;;;;4.72;0.63;;;7.40;96.90;;;;;;5026745;28;20045;-82
2021/04/05 12:08:06;;;;;;;2.35;0.50;;;7.60;95.40;;;;;;5024976;28;20045;-82
2021/04/05 12:10:34;;;;;;;2.47;0.70;;;7.70;92.10;;;;;;5025622;28;20050;-82
2021/04/05 12:13:09;;;;;;;2.63;0.77;;;7.90;92.80;;;;;;5023160;28;20114;-81
2021/04/05 12:15:37;;;;;;;5.10;0.70;;;8.10;91.70;;;;;;5021897;28;20127;-82
2021/04/05 12:18:04;;;;;;;5.80;1.17;;;8.70;89.70;;;;;;5003963;28;20465;-82
2021/04/05 12:20:32;;;;;;;6.43;0.95;;;9.00;83.30;;;;;;5023609;28;20045;-84
2021/04/05 12:23:01;;;;;;;1.85;0.65;;;9.20;85.20;;;;;;5022583;28;20070;-82
2021/04/05 12:25:43;;;;;;;9.13;0.70;;;9.60;79.80;;;;;;5025833;28;20103;-81
2021/04/05 12:28:11;;;;;;;6.00;1.60;;;9.90;71.20;;;;;;5034991;28;20136;-84
2021/04/05 12:30:42;;;;;;;2.58;0.90;;;10.00;70.70;;;;;;5022885;28;20148;-84
2021/04/05 12:33:15;;;;;;;3.58;0.80;;;10.30;62.80;;;;;;5024460;28;20058;-83
2021/04/05 12:35:56;;;;;;;7.20;0.82;;;10.70;62.60;;;;;;5022393;28;20137;-86
2021/04/05 12:38:44;;;;;;;3.40;0.93;;;11.30;60.50;;;;;;4995039;28;20764;-80
2021/04/05 12:41:10;;;;;;;6.15;1.75;;;12.00;54.40;;;;;;5027655;28;20050;-82
2021/04/05 12:43:39;;;;;;;11.82;1.90;;;12.10;52.20;;;;;;5024805;28;20231;-81
2021/04/05 12:46:13;;;;;;;5.43;1.02;;;12.40;54.30;;;;;;5022542;28;20054;-82
2021/04/05 12:48:42;;;;;;;5.18;1.05;;;13.30;53.90;;;;;;5005638;28;20069;-82
2021/04/05 12:51:11;;;;;;;7.35;1.00;;;14.10;47.60;;;;;;5023774;28;20054;-82
2021/04/05 12:53:39;;;;;;;3.40;0.77;;;14.60;48.60;;;;;;5009016;28;20137;-82
2021/04/05 12:56:16;;;;;;;8.63;0.90;;;15.30;45.50;;;;;;5021233;28;20455;-83
2021/04/05 12:58:42;;;;;;;4.68;1.63;;;15.60;46.40;;;;;;5021011;28;20516;-82
2021/04/05 13:01:09;;;;;;;5.20;1.00;;;15.90;44.20;;;;;;5025673;28;20132;-82
2021/04/05 13:03:51;;;;;;;6.63;1.08;;;16.00;46.40;;;;;;5021504;28;20492;-83
2021/04/05 13:06:24;;;;;;;7.43;1.40;;;16.20;46.60;;;;;;5021601;28;20045;-80
2021/04/05 13:09:03;;;;;;;9.85;1.63;;;16.60;47.00;;;;;;5017396;28;20064;-81
2021/04/05 13:11:37;;;;;;;9.32;1.50;;;17.40;43.90;;;;;;5024272;28;20055;-83
2021/04/05 13:14:13;;;;;;;7.25;1.10;;;17.70;44.20;;;;;;5014164;28;20046;-82
2021/04/05 13:16:50;;;;;;;6.57;1.10;;;17.10;42.90;;;;;;5021448;28;20140;-84
2021/04/05 13:19:18;;;;;;;8.27;1.10;;;15.70;45.60;;;;;;5016383;28;20052;-84
2021/04/05 13:21:48;;;;;;;4.45;1.25;;;15.10;46.60;;;;;;5022386;28;20115;-85
2021/04/05 13:24:20;;;;;;;5.30;0.70;;;14.10;49.50;;;;;;4991010;28;20160;-82
2021/04/05 13:26:59;;;;;;;4.10;0.52;;;12.60;55.20;;;;;;5015016;28;20117;-81
2021/04/05 13:29:30;;;;;;;3.83;0.70;;;10.80;62.50;;;;;;5000062;28;20053;-81
2021/04/05 13:31:59;;;;;;;3.63;0.45;;;9.00;68.20;;;;;;5010746;28;20499;-83
2021/04/05 13:34:32;;;;;;;6.82;0.60;;;7.80;76.30;;;;;;4999144;28;20061;-84
2021/04/05 13:37:06;;;;;;;4.18;0.55;;;6.80;91.80;;;;;;5011539;28;20392;-83